sensor_id;sensor_type;location;lat;lon;timestamp;pressure;altitude;pressure_sealevel;temperature;humidity
10115;BME280;5097;43.260;27.812;2023-02-28T00:00:42;101085.81;;;7.25;89.50
10115;BME280;5097;43.260;27.812;2023-02-28T00:03:28;101077.75;;;7.31;86.95
10115;BME280;5097;43.260;27.812;2023-02-28T00:06:12;101071.91;;;6.82;87.14
10115;BME280;5097;43.260;27.812;2023-02-28T00:08:56;101071.91;;;7.20;88.27
10115;BME280;5097;43.260;27.812;2023-02-28T00:11:40;101081.41;;;6.88;88.58
10115;BME280;5097;43.260;27.812;2023-02-28T00:14:24;101103.44;;;7.20;86.80
10115;BME280;5097;43.260;27.812;2023-02-28T00:17:08;101107.13;;;7.13;86.57
10115;BME280;5097;43.260;27.812;2023-02-28T00:19:53;101109.50;;;7.24;87.06
10115;BME280;5097;43.260;27.812;2023-02-28T00:22:38;101103.66;;;7.48;86.76
10115;BME280;5097;43.260;27.812;2023-02-28T00:25:24;101109.69;;;7.16;86.72
10115;BME280;5097;43.260;27.812;2023-02-28T00:28:08;101095.94;;;6.64;88.20
10115;BME280;5097;43.260;27.812;2023-02-28T00:30:52;101101.16;;;7.06;87.47
10115;BME280;5097;43.260;27.812;2023-02-28T00:33:36;101099.53;;;7.36;88.10
10115;BME280;5097;43.260;27.812;2023-02-28T00:36:21;101108.81;;;7.53;87.65
10115;BME280;5097;43.260;27.812;2023-02-28T00:39:05;101077.75;;;7.31;85.91
10115;BME280;5097;43.260;27.812;2023-02-28T00:41:49;101105.41;;;7.12;85.89
10115;BME280;5097;43.260;27.812;2023-02-28T00:44:33;101095.13;;;6.62;87.73
10115;BME280;5097;43.260;27.812;2023-02-28T00:47:17;101121.19;;;7.10;89.08
10115;BME280;5097;43.260;27.812;2023-02-28T00:50:01;101107.25;;;7.07;87.01
10115;BME280;5097;43.260;27.812;2023-02-28T00:52:47;101102.72;;;7.13;87.50
10115;BME280;5097;43.260;27.812;2023-02-28T00:55:31;101101.84;;;6.75;86.80
10115;BME280;5097;43.260;27.812;2023-02-28T00:58:15;101110.22;;;6.91;87.89
10115;BME280;5097;43.260;27.812;2023-02-28T01:00:59;101101.41;;;7.31;87.62
10115;BME280;5097;43.260;27.812;2023-02-28T01:03:43;101089.97;;;6.96;87.21
10115;BME280;5097;43.260;27.812;2023-02-28T01:06:27;101109.41;;;6.89;86.49
10115;BME280;5097;43.260;27.812;2023-02-28T01:09:12;101102.72;;;7.13;86.71
10115;BME280;5097;43.260;27.812;2023-02-28T01:11:57;101095.97;;;6.62;87.68
10115;BME280;5097;43.260;27.812;2023-02-28T01:14:41;101114.19;;;6.26;88.62
10115;BME280;5097;43.260;27.812;2023-02-28T01:17:25;101126.56;;;6.65;89.22
10115;BME280;5097;43.260;27.812;2023-02-28T01:20:10;101152.97;;;6.99;87.38
10115;BME280;5097;43.260;27.812;2023-02-28T01:22:54;101136.72;;;6.82;85.41
10115;BME280;5097;43.260;27.812;2023-02-28T01:25:39;101119.25;;;6.35;87.46
10115;BME280;5097;43.260;27.812;2023-02-28T01:28:23;101125.81;;;6.58;85.98
10115;BME280;5097;43.260;27.812;2023-02-28T01:31:08;101138.69;;;6.70;87.17
10115;BME280;5097;43.260;27.812;2023-02-28T01:33:53;101134.31;;;6.27;86.94
10115;BME280;5097;43.260;27.812;2023-02-28T01:36:36;101124.53;;;5.85;89.59
10115;BME280;5097;43.260;27.812;2023-02-28T01:39:20;101125.16;;;6.01;89.04
10115;BME280;5097;43.260;27.812;2023-02-28T01:42:08;101158.09;;;6.18;88.20
10115;BME280;5097;43.260;27.812;2023-02-28T01:44:59;101154.09;;;6.44;87.99
10115;BME280;5097;43.260;27.812;2023-02-28T01:47:45;101127.91;;;6.41;86.54
10115;BME280;5097;43.260;27.812;2023-02-28T01:50:33;101147.69;;;6.12;87.57
10115;BME280;5097;43.260;27.812;2023-02-28T01:53:21;101155.63;;;6.09;87.50
10115;BME280;5097;43.260;27.812;2023-02-28T01:56:10;101153.84;;;6.09;88.48
10115;BME280;5097;43.260;27.812;2023-02-28T01:58:57;101147.53;;;6.21;87.44
10115;BME280;5097;43.260;27.812;2023-02-28T02:01:41;101119.47;;;5.75;87.50
10115;BME280;5097;43.260;27.812;2023-02-28T02:04:27;101137.63;;;5.87;87.05
10115;BME280;5097;43.260;27.812;2023-02-28T02:07:17;101154.84;;;6.03;87.30
10115;BME280;5097;43.260;27.812;2023-02-28T02:10:05;101148.81;;;5.97;88.03
10115;BME280;5097;43.260;27.812;2023-02-28T02:13:05;101142.84;;;5.88;89.19
10115;BME280;5097;43.260;27.812;2023-02-28T02:16:23;101126.47;;;6.24;87.65
10115;BME280;5097;43.260;27.812;2023-02-28T02:19:21;101127.19;;;6.34;87.42
10115;BME280;5097;43.260;27.812;2023-02-28T02:22:43;101141.94;;;6.83;86.22
10115;BME280;5097;43.260;27.812;2023-02-28T02:25:34;101123.38;;;6.49;86.30
10115;BME280;5097;43.260;27.812;2023-02-28T02:31:53;101124.03;;;6.15;88.75
10115;BME280;5097;43.260;27.812;2023-02-28T02:34:51;101140.47;;;5.73;87.67
10115;BME280;5097;43.260;27.812;2023-02-28T02:37:46;101153.78;;;5.61;88.69
10115;BME280;5097;43.260;27.812;2023-02-28T02:40:36;101136.22;;;6.19;88.01
10115;BME280;5097;43.260;27.812;2023-02-28T02:43:26;101145.63;;;6.29;86.80
10115;BME280;5097;43.260;27.812;2023-02-28T02:46:16;101137.16;;;6.59;86.30
10115;BME280;5097;43.260;27.812;2023-02-28T02:49:06;101161.34;;;6.75;86.54
10115;BME280;5097;43.260;27.812;2023-02-28T02:51:55;101167.56;;;7.13;86.34
10115;BME280;5097;43.260;27.812;2023-02-28T02:54:43;101170.94;;;7.19;85.96
10115;BME280;5097;43.260;27.812;2023-02-28T02:57:31;101163.34;;;6.18;84.82
10115;BME280;5097;43.260;27.812;2023-02-28T03:00:20;101114.84;;;6.39;85.86
10115;BME280;5097;43.260;27.812;2023-02-28T03:03:07;101149.59;;;6.03;85.34
10115;BME280;5097;43.260;27.812;2023-02-28T03:05:53;101152.94;;;6.12;85.88
10115;BME280;5097;43.260;27.812;2023-02-28T03:08:38;101158.59;;;5.87;87.76
10115;BME280;5097;43.260;27.812;2023-02-28T03:11:22;101145.50;;;6.35;87.10
10115;BME280;5097;43.260;27.812;2023-02-28T03:14:33;101186.03;;;6.20;85.62
10115;BME280;5097;43.260;27.812;2023-02-28T03:18:02;101180.09;;;6.56;86.61
10115;BME280;5097;43.260;27.812;2023-02-28T03:20:56;101179.72;;;6.29;86.55
10115;BME280;5097;43.260;27.812;2023-02-28T03:23:52;101194.22;;;6.50;87.04
10115;BME280;5097;43.260;27.812;2023-02-28T03:26:41;101191.91;;;6.79;85.72
10115;BME280;5097;43.260;27.812;2023-02-28T03:29:30;101180.38;;;6.42;84.22
10115;BME280;5097;43.260;27.812;2023-02-28T03:32:21;101168.25;;;6.36;85.54
10115;BME280;5097;43.260;27.812;2023-02-28T03:35:10;101147.44;;;6.24;84.17
10115;BME280;5097;43.260;27.812;2023-02-28T03:38:03;101187.84;;;6.17;85.43
10115;BME280;5097;43.260;27.812;2023-02-28T03:40:51;101182.06;;;5.96;86.76
10115;BME280;5097;43.260;27.812;2023-02-28T03:43:41;101179.59;;;6.37;86.27
10115;BME280;5097;43.260;27.812;2023-02-28T03:46:30;101158.44;;;5.96;86.67
10115;BME280;5097;43.260;27.812;2023-02-28T03:49:18;101157.59;;;5.40;89.80
10115;BME280;5097;43.260;27.812;2023-02-28T03:52:06;101171.50;;;5.45;89.97
10115;BME280;5097;43.260;27.812;2023-02-28T03:54:53;101192.72;;;5.85;89.01
10115;BME280;5097;43.260;27.812;2023-02-28T03:57:43;101163.66;;;5.99;87.96
10115;BME280;5097;43.260;27.812;2023-02-28T04:00:35;101202.19;;;5.94;87.01
10115;BME280;5097;43.260;27.812;2023-02-28T04:03:19;101215.50;;;6.36;86.85
10115;BME280;5097;43.260;27.812;2023-02-28T04:06:04;101221.19;;;6.59;87.10
10115;BME280;5097;43.260;27.812;2023-02-28T04:08:49;101204.00;;;6.42;85.04
10115;BME280;5097;43.260;27.812;2023-02-28T04:11:36;101198.25;;;6.67;85.22
10115;BME280;5097;43.260;27.812;2023-02-28T04:14:22;101213.81;;;6.32;84.85
10115;BME280;5097;43.260;27.812;2023-02-28T04:17:06;101232.19;;;5.76;85.06
10115;BME280;5097;43.260;27.812;2023-02-28T04:19:50;101216.44;;;5.78;86.89
10115;BME280;5097;43.260;27.812;2023-02-28T04:22:33;101200.66;;;5.81;85.24
10115;BME280;5097;43.260;27.812;2023-02-28T04:25:17;101201.81;;;6.17;85.38
10115;BME280;5097;43.260;27.812;2023-02-28T04:28:01;101204.81;;;5.93;85.85
10115;BME280;5097;43.260;27.812;2023-02-28T04:30:46;101195.81;;;6.09;85.99
10115;BME280;5097;43.260;27.812;2023-02-28T04:33:31;101179.53;;;6.40;84.98
10115;BME280;5097;43.260;27.812;2023-02-28T04:36:15;101183.97;;;5.85;85.26
10115;BME280;5097;43.260;27.812;2023-02-28T04:39:00;101181.00;;;6.08;85.57
10115;BME280;5097;43.260;27.812;2023-02-28T04:41:44;101181.47;;;5.79;86.48
10115;BME280;5097;43.260;27.812;2023-02-28T04:44:28;101188.63;;;5.67;86.44
10115;BME280;5097;43.260;27.812;2023-02-28T04:47:13;101178.16;;;6.20;86.16
10115;BME280;5097;43.260;27.812;2023-02-28T04:49:57;101172.50;;;5.92;86.01
10115;BME280;5097;43.260;27.812;2023-02-28T04:52:41;101171.63;;;5.92;85.61
10115;BME280;5097;43.260;27.812;2023-02-28T04:55:25;101166.66;;;5.76;86.62
10115;BME280;5097;43.260;27.812;2023-02-28T04:58:09;101178.19;;;5.64;87.50
10115;BME280;5097;43.260;27.812;2023-02-28T05:00:53;101166.91;;;6.14;86.94
10115;BME280;5097;43.260;27.812;2023-02-28T05:03:38;101170.16;;;6.27;85.44
10115;BME280;5097;43.260;27.812;2023-02-28T05:06:25;101182.34;;;6.29;84.41
10115;BME280;5097;43.260;27.812;2023-02-28T05:09:10;101181.47;;;5.79;86.18
10115;BME280;5097;43.260;27.812;2023-02-28T05:11:55;101185.63;;;5.34;87.14
10115;BME280;5097;43.260;27.812;2023-02-28T05:14:39;101188.81;;;5.55;88.42
10115;BME280;5097;43.260;27.812;2023-02-28T05:17:23;101196.47;;;5.67;86.97
10115;BME280;5097;43.260;27.812;2023-02-28T05:20:10;101201.19;;;5.47;89.58
10115;BME280;5097;43.260;27.812;2023-02-28T05:22:58;101182.31;;;5.79;88.52
10115;BME280;5097;43.260;27.812;2023-02-28T05:25:43;101214.75;;;5.74;88.29
10115;BME280;5097;43.260;27.812;2023-02-28T05:28:26;101230.00;;;5.47;90.28
10115;BME280;5097;43.260;27.812;2023-02-28T05:31:11;101232.97;;;5.83;88.53
10115;BME280;5097;43.260;27.812;2023-02-28T05:33:55;101246.66;;;6.03;87.93
10115;BME280;5097;43.260;27.812;2023-02-28T05:36:40;101242.47;;;5.90;88.65
10115;BME280;5097;43.260;27.812;2023-02-28T05:39:24;101252.25;;;6.33;87.62
10115;BME280;5097;43.260;27.812;2023-02-28T05:42:08;101280.78;;;6.55;85.94
10115;BME280;5097;43.260;27.812;2023-02-28T05:44:52;101286.84;;;6.57;85.88
10115;BME280;5097;43.260;27.812;2023-02-28T05:47:36;101297.06;;;6.74;85.33
10115;BME280;5097;43.260;27.812;2023-02-28T05:50:20;101292.97;;;6.04;86.95
10115;BME280;5097;43.260;27.812;2023-02-28T05:53:05;101272.09;;;5.95;88.44
10115;BME280;5097;43.260;27.812;2023-02-28T05:55:49;101290.97;;;6.22;87.41
10115;BME280;5097;43.260;27.812;2023-02-28T05:58:33;101293.44;;;5.70;88.54
10115;BME280;5097;43.260;27.812;2023-02-28T06:01:31;101290.75;;;5.77;89.12
10115;BME280;5097;43.260;27.812;2023-02-28T06:04:16;101276.56;;;5.26;91.09
10115;BME280;5097;43.260;27.812;2023-02-28T06:07:13;101289.72;;;5.87;90.13
10115;BME280;5097;43.260;27.812;2023-02-28T06:09:58;101258.97;;;5.97;87.75
10115;BME280;5097;43.260;27.812;2023-02-28T06:12:44;101300.63;;;6.18;87.82
10115;BME280;5097;43.260;27.812;2023-02-28T06:15:28;101302.59;;;6.06;88.86
10115;BME280;5097;43.260;27.812;2023-02-28T06:18:12;101298.72;;;5.67;90.14
10115;BME280;5097;43.260;27.812;2023-02-28T06:20:56;101281.16;;;5.74;90.63
10115;BME280;5097;43.260;27.812;2023-02-28T06:23:40;101288.97;;;5.79;90.86
10115;BME280;5097;43.260;27.812;2023-02-28T06:26:26;101288.59;;;6.05;90.23
10115;BME280;5097;43.260;27.812;2023-02-28T06:29:09;101293.75;;;6.11;88.52
10115;BME280;5097;43.260;27.812;2023-02-28T06:31:53;101247.75;;;5.28;90.07
10115;BME280;5097;43.260;27.812;2023-02-28T06:34:37;101291.25;;;6.03;89.88
10115;BME280;5097;43.260;27.812;2023-02-28T06:37:21;101292.81;;;5.53;90.26
10115;BME280;5097;43.260;27.812;2023-02-28T06:40:10;101286.50;;;5.66;89.99
10115;BME280;5097;43.260;27.812;2023-02-28T06:42:56;101284.00;;;5.57;89.74
10115;BME280;5097;43.260;27.812;2023-02-28T06:45:42;101286.81;;;5.45;92.15
10115;BME280;5097;43.260;27.812;2023-02-28T06:48:26;101285.03;;;5.47;92.52
10115;BME280;5097;43.260;27.812;2023-02-28T06:51:13;101280.69;;;5.46;91.81
10115;BME280;5097;43.260;27.812;2023-02-28T06:53:57;101285.00;;;5.50;92.57
10115;BME280;5097;43.260;27.812;2023-02-28T06:56:41;101279.00;;;5.42;93.21
10115;BME280;5097;43.260;27.812;2023-02-28T06:59:26;101167.25;;;4.70;94.98
10115;BME280;5097;43.260;27.812;2023-02-28T07:02:10;101277.44;;;5.27;94.97
10115;BME280;5097;43.260;27.812;2023-02-28T07:04:54;101281.91;;;5.17;94.79
10115;BME280;5097;43.260;27.812;2023-02-28T07:07:38;101274.00;;;5.22;95.19
10115;BME280;5097;43.260;27.812;2023-02-28T07:10:26;101274.72;;;5.34;93.14
10115;BME280;5097;43.260;27.812;2023-02-28T07:13:10;101243.22;;;5.37;92.82
10115;BME280;5097;43.260;27.812;2023-02-28T07:15:57;101266.81;;;5.37;92.10
10115;BME280;5097;43.260;27.812;2023-02-28T07:18:41;101285.88;;;5.49;93.35
10115;BME280;5097;43.260;27.812;2023-02-28T07:21:25;101287.63;;;5.50;91.89
10115;BME280;5097;43.260;27.812;2023-02-28T07:24:09;101293.41;;;5.74;91.49
10115;BME280;5097;43.260;27.812;2023-02-28T07:26:53;101285.53;;;5.74;91.15
10115;BME280;5097;43.260;27.812;2023-02-28T07:29:36;101299.88;;;5.46;91.35
10115;BME280;5097;43.260;27.812;2023-02-28T07:32:22;101243.78;;;5.61;89.14
10115;BME280;5097;43.260;27.812;2023-02-28T07:35:07;101287.09;;;5.87;91.00
10115;BME280;5097;43.260;27.812;2023-02-28T07:37:51;101291.75;;;5.66;90.11
10115;BME280;5097;43.260;27.812;2023-02-28T07:40:35;101233.72;;;5.32;90.83
10115;BME280;5097;43.260;27.812;2023-02-28T07:43:19;101263.81;;;5.65;91.20
10115;BME280;5097;43.260;27.812;2023-02-28T07:46:04;101268.97;;;5.71;89.64
10115;BME280;5097;43.260;27.812;2023-02-28T07:48:50;101229.16;;;5.45;90.66
10115;BME280;5097;43.260;27.812;2023-02-28T07:51:35;101260.16;;;5.76;90.06
10115;BME280;5097;43.260;27.812;2023-02-28T07:54:19;101227.34;;;5.50;89.58
10115;BME280;5097;43.260;27.812;2023-02-28T07:57:03;101265.16;;;5.93;89.94
10115;BME280;5097;43.260;27.812;2023-02-28T07:59:46;101279.59;;;6.20;87.23
10115;BME280;5097;43.260;27.812;2023-02-28T08:02:30;101299.03;;;6.10;87.62
10115;BME280;5097;43.260;27.812;2023-02-28T08:05:16;101295.78;;;6.95;85.82
10115;BME280;5097;43.260;27.812;2023-02-28T08:08:03;101301.97;;;6.91;84.07
10115;BME280;5097;43.260;27.812;2023-02-28T08:10:47;101313.81;;;6.67;83.79
10115;BME280;5097;43.260;27.812;2023-02-28T08:13:31;101298.94;;;6.67;83.76
10115;BME280;5097;43.260;27.812;2023-02-28T08:16:15;101316.47;;;6.12;86.09
10115;BME280;5097;43.260;27.812;2023-02-28T08:19:04;101310.59;;;5.93;86.14
10115;BME280;5097;43.260;27.812;2023-02-28T08:21:49;101313.72;;;6.20;86.53
10115;BME280;5097;43.260;27.812;2023-02-28T08:24:33;101279.91;;;6.00;85.94
10115;BME280;5097;43.260;27.812;2023-02-28T08:27:17;101312.84;;;6.19;86.13
10115;BME280;5097;43.260;27.812;2023-02-28T08:30:01;101312.13;;;6.63;84.71
10115;BME280;5097;43.260;27.812;2023-02-28T08:32:46;101301.72;;;6.58;84.08
10115;BME280;5097;43.260;27.812;2023-02-28T08:35:30;101313.31;;;6.45;85.03
10115;BME280;5097;43.260;27.812;2023-02-28T08:38:15;101315.97;;;6.43;84.78
10115;BME280;5097;43.260;27.812;2023-02-28T08:41:01;101318.09;;;6.73;83.10
10115;BME280;5097;43.260;27.812;2023-02-28T08:43:45;101323.66;;;6.56;82.89
10115;BME280;5097;43.260;27.812;2023-02-28T08:46:29;101322.44;;;6.74;83.00
10115;BME280;5097;43.260;27.812;2023-02-28T08:49:12;101318.19;;;6.66;82.81
10115;BME280;5097;43.260;27.812;2023-02-28T08:51:59;101317.81;;;6.88;82.97
10115;BME280;5097;43.260;27.812;2023-02-28T08:54:44;101283.97;;;6.73;82.19
10115;BME280;5097;43.260;27.812;2023-02-28T08:57:28;101329.09;;;6.93;82.71
10115;BME280;5097;43.260;27.812;2023-02-28T09:00:13;101333.16;;;7.10;81.64
10115;BME280;5097;43.260;27.812;2023-02-28T09:02:56;101316.22;;;6.78;82.51
10115;BME280;5097;43.260;27.812;2023-02-28T09:05:40;101325.19;;;6.67;81.25
10115;BME280;5097;43.260;27.812;2023-02-28T09:08:25;101326.38;;;6.99;80.87
10115;BME280;5097;43.260;27.812;2023-02-28T09:11:11;101315.00;;;7.43;77.92
10115;BME280;5097;43.260;27.812;2023-02-28T09:13:55;101331.34;;;7.13;79.33
10115;BME280;5097;43.260;27.812;2023-02-28T09:16:39;101319.81;;;7.20;79.41
10115;BME280;5097;43.260;27.812;2023-02-28T09:19:23;101318.66;;;7.35;79.50
10115;BME280;5097;43.260;27.812;2023-02-28T09:22:07;101325.00;;;7.25;78.64
10115;BME280;5097;43.260;27.812;2023-02-28T09:24:51;101315.84;;;7.43;77.23
10115;BME280;5097;43.260;27.812;2023-02-28T09:27:37;101282.63;;;6.97;79.69
10115;BME280;5097;43.260;27.812;2023-02-28T09:30:23;101259.13;;;7.33;78.75
10115;BME280;5097;43.260;27.812;2023-02-28T09:33:08;101318.91;;;8.03;75.39
10115;BME280;5097;43.260;27.812;2023-02-28T09:35:58;101327.06;;;7.53;77.29
10115;BME280;5097;43.260;27.812;2023-02-28T09:38:43;101320.63;;;7.24;77.90
10115;BME280;5097;43.260;27.812;2023-02-28T09:41:37;101283.09;;;7.17;77.94
10115;BME280;5097;43.260;27.812;2023-02-28T09:44:36;101326.81;;;8.03;76.04
10115;BME280;5097;43.260;27.812;2023-02-28T09:47:27;101291.50;;;7.76;77.17
10115;BME280;5097;43.260;27.812;2023-02-28T09:50:26;101341.53;;;8.49;74.40
10115;BME280;5097;43.260;27.812;2023-02-28T09:53:20;101313.13;;;8.25;74.77
10115;BME280;5097;43.260;27.812;2023-02-28T09:56:09;101343.69;;;7.53;76.59
10115;BME280;5097;43.260;27.812;2023-02-28T09:58:57;101344.25;;;7.26;78.63
10115;BME280;5097;43.260;27.812;2023-02-28T10:01:51;101341.47;;;6.86;79.26
10115;BME280;5097;43.260;27.812;2023-02-28T10:04:43;101343.56;;;7.16;79.92
10115;BME280;5097;43.260;27.812;2023-02-28T10:07:46;101345.06;;;7.29;80.23
10115;BME280;5097;43.260;27.812;2023-02-28T10:10:39;101341.16;;;7.49;78.70
10115;BME280;5097;43.260;27.812;2023-02-28T10:13:27;101353.66;;;7.37;79.25
10115;BME280;5097;43.260;27.812;2023-02-28T10:16:18;101354.13;;;7.13;79.83
10115;BME280;5097;43.260;27.812;2023-02-28T10:19:11;101342.94;;;7.47;80.66
10115;BME280;5097;43.260;27.812;2023-02-28T10:21:57;101336.38;;;7.24;78.95
10115;BME280;5097;43.260;27.812;2023-02-28T10:24:44;101338.50;;;7.05;80.48
10115;BME280;5097;43.260;27.812;2023-02-28T10:27:30;101312.72;;;6.79;80.29
10115;BME280;5097;43.260;27.812;2023-02-28T10:30:14;101322.75;;;7.05;79.73
10115;BME280;5097;43.260;27.812;2023-02-28T10:32:58;101316.03;;;7.34;78.53
10115;BME280;5097;43.260;27.812;2023-02-28T10:35:44;101303.81;;;7.33;78.32
10115;BME280;5097;43.260;27.812;2023-02-28T10:38:32;101286.34;;;6.85;79.61
10115;BME280;5097;43.260;27.812;2023-02-28T10:41:26;101306.44;;;7.31;78.09
10115;BME280;5097;43.260;27.812;2023-02-28T10:44:17;101302.81;;;7.78;76.66
10115;BME280;5097;43.260;27.812;2023-02-28T10:47:03;101300.63;;;7.98;77.14
10115;BME280;5097;43.260;27.812;2023-02-28T10:49:48;101284.44;;;7.37;78.27
10115;BME280;5097;43.260;27.812;2023-02-28T10:52:36;101291.81;;;7.60;78.65
10115;BME280;5097;43.260;27.812;2023-02-28T10:55:25;101243.69;;;7.16;77.84
10115;BME280;5097;43.260;27.812;2023-02-28T10:58:30;101280.13;;;7.74;77.13
10115;BME280;5097;43.260;27.812;2023-02-28T11:01:17;101270.44;;;6.91;78.84
10115;BME280;5097;43.260;27.812;2023-02-28T11:04:02;101243.06;;;7.03;79.40
10115;BME280;5097;43.260;27.812;2023-02-28T11:06:46;101267.53;;;7.49;77.40
10115;BME280;5097;43.260;27.812;2023-02-28T11:09:34;101260.06;;;7.69;77.64
10115;BME280;5097;43.260;27.812;2023-02-28T11:12:21;101273.59;;;7.92;75.99
10115;BME280;5097;43.260;27.812;2023-02-28T11:15:18;101273.00;;;7.79;75.49
10115;BME280;5097;43.260;27.812;2023-02-28T11:18:19;101287.88;;;7.39;77.53
10115;BME280;5097;43.260;27.812;2023-02-28T11:21:05;101265.31;;;7.69;76.16
10115;BME280;5097;43.260;27.812;2023-02-28T11:23:51;101271.31;;;7.76;75.96
10115;BME280;5097;43.260;27.812;2023-02-28T11:26:40;101278.00;;;7.89;78.14
10115;BME280;5097;43.260;27.812;2023-02-28T11:29:26;101264.69;;;7.58;77.95
10115;BME280;5097;43.260;27.812;2023-02-28T11:32:16;101269.84;;;7.63;77.84
10115;BME280;5097;43.260;27.812;2023-02-28T11:35:04;101256.56;;;7.69;78.84
10115;BME280;5097;43.260;27.812;2023-02-28T11:37:57;101252.28;;;8.02;77.47
10115;BME280;5097;43.260;27.812;2023-02-28T11:40:47;101259.03;;;8.13;74.78
10115;BME280;5097;43.260;27.812;2023-02-28T11:43:50;101237.34;;;8.37;75.57
10115;BME280;5097;43.260;27.812;2023-02-28T11:46:42;101234.75;;;8.01;76.68
10115;BME280;5097;43.260;27.812;2023-02-28T11:49:35;101252.06;;;8.10;75.45
10115;BME280;5097;43.260;27.812;2023-02-28T11:52:29;101193.88;;;8.21;74.74
10115;BME280;5097;43.260;27.812;2023-02-28T11:55:21;101243.06;;;8.55;74.71
10115;BME280;5097;43.260;27.812;2023-02-28T11:58:31;101243.16;;;7.41;77.71
10115;BME280;5097;43.260;27.812;2023-02-28T12:01:28;101232.69;;;7.39;77.61
10115;BME280;5097;43.260;27.812;2023-02-28T12:04:24;101230.88;;;7.80;75.97
10115;BME280;5097;43.260;27.812;2023-02-28T12:07:15;101221.13;;;8.20;77.51
10115;BME280;5097;43.260;27.812;2023-02-28T12:10:09;101222.25;;;8.79;74.68
10115;BME280;5097;43.260;27.812;2023-02-28T12:13:04;101214.72;;;7.58;76.00
10115;BME280;5097;43.260;27.812;2023-02-28T12:16:29;101225.34;;;7.53;77.10
10115;BME280;5097;43.260;27.812;2023-02-28T12:19:21;101231.97;;;7.70;77.41
10115;BME280;5097;43.260;27.812;2023-02-28T12:22:22;101238.09;;;7.31;78.79
10115;BME280;5097;43.260;27.812;2023-02-28T12:25:30;101241.50;;;7.36;77.69
10115;BME280;5097;43.260;27.812;2023-02-28T12:28:25;101246.75;;;7.36;77.63
10115;BME280;5097;43.260;27.812;2023-02-28T12:31:16;101237.97;;;8.13;75.43
10115;BME280;5097;43.260;27.812;2023-02-28T12:34:06;101244.81;;;7.45;76.20
10115;BME280;5097;43.260;27.812;2023-02-28T12:36:53;101256.09;;;7.89;76.40
10115;BME280;5097;43.260;27.812;2023-02-28T12:39:45;101257.38;;;6.88;79.19
10115;BME280;5097;43.260;27.812;2023-02-28T12:42:34;101257.81;;;7.12;79.10
10115;BME280;5097;43.260;27.812;2023-02-28T12:45:22;101245.56;;;7.11;79.50
10115;BME280;5097;43.260;27.812;2023-02-28T12:48:10;101237.31;;;7.28;78.64
10115;BME280;5097;43.260;27.812;2023-02-28T12:50:58;101238.91;;;6.94;78.67
10115;BME280;5097;43.260;27.812;2023-02-28T12:53:53;101224.13;;;6.87;80.04
10115;BME280;5097;43.260;27.812;2023-02-28T12:56:44;101228.59;;;6.83;80.93
10115;BME280;5097;43.260;27.812;2023-02-28T12:59:36;101225.09;;;6.83;79.30
10115;BME280;5097;43.260;27.812;2023-02-28T13:09:04;101216.91;;;6.53;80.99
10115;BME280;5097;43.260;27.812;2023-02-28T13:11:50;101236.69;;;6.73;80.53
10115;BME280;5097;43.260;27.812;2023-02-28T13:14:36;101227.94;;;6.72;80.60
10115;BME280;5097;43.260;27.812;2023-02-28T13:17:21;101218.16;;;6.35;81.52
10115;BME280;5097;43.260;27.812;2023-02-28T13:20:16;101246.88;;;6.88;80.99
10115;BME280;5097;43.260;27.812;2023-02-28T13:23:01;101255.41;;;6.54;82.48
10115;BME280;5097;43.260;27.812;2023-02-28T13:25:55;101258.69;;;7.11;80.75
10115;BME280;5097;43.260;27.812;2023-02-28T13:29:27;101242.69;;;6.79;80.46
10115;BME280;5097;43.260;27.812;2023-02-28T13:35:47;101247.38;;;6.12;82.92
10115;BME280;5097;43.260;27.812;2023-02-28T13:38:36;101252.09;;;6.43;82.12
10115;BME280;5097;43.260;27.812;2023-02-28T13:41:44;101248.88;;;6.28;82.59
10115;BME280;5097;43.260;27.812;2023-02-28T13:44:29;101257.06;;;6.10;82.52
10115;BME280;5097;43.260;27.812;2023-02-28T13:47:30;101244.25;;;5.88;82.70
10115;BME280;5097;43.260;27.812;2023-02-28T13:50:21;101251.13;;;5.95;83.39
10115;BME280;5097;43.260;27.812;2023-02-28T13:53:34;101232.06;;;5.85;84.63
10115;BME280;5097;43.260;27.812;2023-02-28T13:56:33;101226.63;;;5.98;84.95
10115;BME280;5097;43.260;27.812;2023-02-28T13:59:25;101210.56;;;5.62;84.96
10115;BME280;5097;43.260;27.812;2023-02-28T14:02:36;101212.00;;;5.80;84.61
10115;BME280;5097;43.260;27.812;2023-02-28T14:05:30;101203.97;;;5.92;84.03
10115;BME280;5097;43.260;27.812;2023-02-28T14:08:19;101226.47;;;6.09;83.86
10115;BME280;5097;43.260;27.812;2023-02-28T14:11:06;101231.16;;;5.88;83.98
10115;BME280;5097;43.260;27.812;2023-02-28T14:13:50;101209.53;;;5.70;85.13
10115;BME280;5097;43.260;27.812;2023-02-28T14:16:40;101226.94;;;5.78;85.35
10115;BME280;5097;43.260;27.812;2023-02-28T14:19:28;101186.91;;;5.65;85.09
10115;BME280;5097;43.260;27.812;2023-02-28T14:22:35;101225.50;;;5.55;85.97
10115;BME280;5097;43.260;27.812;2023-02-28T14:25:27;101233.78;;;5.85;85.59
10115;BME280;5097;43.260;27.812;2023-02-28T14:28:22;101227.75;;;5.80;85.19
10115;BME280;5097;43.260;27.812;2023-02-28T14:31:11;101223.56;;;5.69;85.75
10115;BME280;5097;43.260;27.812;2023-02-28T14:34:17;101214.16;;;5.56;85.79
10115;BME280;5097;43.260;27.812;2023-02-28T14:37:13;101225.66;;;6.03;84.84
10115;BME280;5097;43.260;27.812;2023-02-28T14:39:59;101225.38;;;5.64;86.01
10115;BME280;5097;43.260;27.812;2023-02-28T14:42:47;101183.50;;;5.61;84.15
10115;BME280;5097;43.260;27.812;2023-02-28T14:45:33;101239.91;;;5.87;84.26
10115;BME280;5097;43.260;27.812;2023-02-28T14:48:20;101242.47;;;5.90;84.77
10115;BME280;5097;43.260;27.812;2023-02-28T14:51:07;101242.66;;;5.78;84.93
10115;BME280;5097;43.260;27.812;2023-02-28T14:53:57;101250.13;;;5.43;86.49
10115;BME280;5097;43.260;27.812;2023-02-28T14:56:42;101245.78;;;5.42;86.99
10115;BME280;5097;43.260;27.812;2023-02-28T14:59:28;101193.91;;;5.05;87.75
10115;BME280;5097;43.260;27.812;2023-02-28T15:02:22;101245.13;;;5.26;87.92
10115;BME280;5097;43.260;27.812;2023-02-28T15:05:21;101217.38;;;5.11;87.88